VOE51YV LFPO-LFBT
Flight info
| Callsign | VOE51YV |
|---|---|
| Flight time | 1h 4m |
| Altitude | 29000 |
| Route | ERIXU DCT ETAMO DCT GUERE DCT EVPOK DCT AGN G17 AUCHE DCT TEPTI |
| Aircraft | A320/M-SDE3FGHIRWY/LB1 |
Departure
| Time | 2026-05-05 19:53 |
|---|---|
| Airport | Paris-Orly Airport (LFPO) |
Arrival
| Time | 2026-05-05 20:57 |
|---|---|
| Airport | Tarbes-Lourdes-Pyrénées Airport (LFBT) |
| Time | Latitude | Longitude | Altitude | Speed | Heading |
|---|---|---|---|---|---|
| 2026-05-05 19:09 | 48.73159 | 2.36093 | 294 ft | 0 kts | 165° |
| 2026-05-05 19:40 | 48.73161 | 2.36092 | 289 ft | 1 kts | 165° |
| 2026-05-05 19:41 | 48.73177 | 2.36086 | 295 ft | 3 kts | 165° |
| 2026-05-05 19:41 | 48.73196 | 2.36079 | 295 ft | 3 kts | 164° |
| 2026-05-05 19:41 | 48.73213 | 2.36067 | 293 ft | 3 kts | 126° |
| 2026-05-05 19:41 | 48.73220 | 2.36042 | 295 ft | 3 kts | 82° |
| 2026-05-05 19:42 | 48.73216 | 2.36021 | 293 ft | 1 kts | 56° |
| 2026-05-05 19:42 | 48.73208 | 2.36002 | 294 ft | 2 kts | 56° |
| 2026-05-05 19:42 | 48.73204 | 2.35994 | 293 ft | 0 kts | 56° |
| 2026-05-05 19:46 | 48.73204 | 2.35995 | 293 ft | 1 kts | 56° |
| 2026-05-05 19:46 | 48.73219 | 2.36027 | 292 ft | 7 kts | 56° |
| 2026-05-05 19:46 | 48.73266 | 2.36104 | 290 ft | 12 kts | 23° |
| 2026-05-05 19:46 | 48.73324 | 2.36044 | 291 ft | 12 kts | 284° |
| 2026-05-05 19:47 | 48.73286 | 2.35904 | 291 ft | 17 kts | 242° |
| 2026-05-05 19:47 | 48.73227 | 2.35730 | 290 ft | 19 kts | 242° |
| 2026-05-05 19:47 | 48.73154 | 2.35599 | 290 ft | 15 kts | 205° |
| 2026-05-05 19:47 | 48.73072 | 2.35494 | 290 ft | 16 kts | 242° |
| 2026-05-05 19:48 | 48.73051 | 2.35438 | 289 ft | 3 kts | 238° |
| 2026-05-05 19:48 | 48.73013 | 2.35393 | 289 ft | 7 kts | 211° |
| 2026-05-05 19:48 | 48.72941 | 2.35353 | 290 ft | 15 kts | 198° |
| 2026-05-05 19:48 | 48.72844 | 2.35303 | 289 ft | 14 kts | 198° |
| 2026-05-05 19:49 | 48.72759 | 2.35261 | 291 ft | 11 kts | 196° |
| 2026-05-05 19:49 | 48.72713 | 2.35253 | 289 ft | 9 kts | 176° |
| 2026-05-05 19:49 | 48.72603 | 2.35297 | 288 ft | 13 kts | 164° |
| 2026-05-05 19:49 | 48.72530 | 2.35327 | 291 ft | 9 kts | 165° |
| 2026-05-05 19:50 | 48.72482 | 2.35347 | 289 ft | 6 kts | 165° |
| 2026-05-05 19:50 | 48.72406 | 2.35385 | 291 ft | 13 kts | 158° |
| 2026-05-05 19:50 | 48.72346 | 2.35447 | 290 ft | 10 kts | 132° |
| 2026-05-05 19:50 | 48.72304 | 2.35538 | 291 ft | 9 kts | 123° |
| 2026-05-05 19:51 | 48.72250 | 2.35595 | 289 ft | 15 kts | 166° |
| 2026-05-05 19:51 | 48.72156 | 2.35629 | 288 ft | 12 kts | 165° |
| 2026-05-05 19:51 | 48.72088 | 2.35664 | 289 ft | 12 kts | 154° |
| 2026-05-05 19:51 | 48.72027 | 2.35757 | 291 ft | 11 kts | 120° |
| 2026-05-05 19:52 | 48.71986 | 2.35860 | 291 ft | 15 kts | 124° |
| 2026-05-05 19:52 | 48.71964 | 2.35985 | 289 ft | 16 kts | 75° |
| 2026-05-05 19:52 | 48.72040 | 2.36383 | 290 ft | 73 kts | 75° |
| 2026-05-05 19:52 | 48.72233 | 2.37436 | 290 ft | 133 kts | 73° |
| 2026-05-05 19:53 | 48.72523 | 2.38980 | 536 ft | 157 kts | 72° |
| 2026-05-05 19:53 | 48.72816 | 2.40565 | 1272 ft | 156 kts | 71° |
| 2026-05-05 19:53 | 48.73101 | 2.42122 | 2048 ft | 155 kts | 70° |
| 2026-05-05 19:53 | 48.73389 | 2.43693 | 2779 ft | 154 kts | 71° |
| 2026-05-05 19:54 | 48.73674 | 2.45252 | 3407 ft | 154 kts | 71° |
| 2026-05-05 19:54 | 48.73970 | 2.46879 | 3831 ft | 170 kts | 74° |
| 2026-05-05 19:54 | 48.74093 | 2.48786 | 4156 ft | 195 kts | 84° |
| 2026-05-05 19:54 | 48.74169 | 2.50937 | 4433 ft | 219 kts | 84° |
| 2026-05-05 19:55 | 48.74254 | 2.53366 | 4794 ft | 243 kts | 85° |
| 2026-05-05 19:55 | 48.74284 | 2.56050 | 5302 ft | 265 kts | 96° |
| 2026-05-05 19:55 | 48.73512 | 2.58617 | 6084 ft | 277 kts | 132° |
| 2026-05-05 19:55 | 48.71901 | 2.60240 | 6931 ft | 284 kts | 158° |
| 2026-05-05 19:56 | 48.70011 | 2.61105 | 7860 ft | 285 kts | 167° |
| 2026-05-05 19:56 | 48.68058 | 2.61698 | 8802 ft | 287 kts | 172° |
| 2026-05-05 19:56 | 48.66065 | 2.61656 | 9704 ft | 289 kts | 191° |
| 2026-05-05 19:56 | 48.64141 | 2.60775 | 10540 ft | 291 kts | 204° |
| 2026-05-05 19:57 | 48.62931 | 2.59824 | 10829 ft | 304 kts | 214° |
| 2026-05-05 19:57 | 48.61303 | 2.57635 | 11127 ft | 324 kts | 230° |
| 2026-05-05 19:57 | 48.59827 | 2.54993 | 11764 ft | 332 kts | 230° |
| 2026-05-05 19:57 | 48.58338 | 2.52298 | 12493 ft | 337 kts | 231° |
| 2026-05-05 19:58 | 48.56833 | 2.49564 | 13046 ft | 340 kts | 231° |
| 2026-05-05 19:58 | 48.55256 | 2.46892 | 13849 ft | 343 kts | 222° |
| 2026-05-05 19:58 | 48.53234 | 2.44987 | 14524 ft | 347 kts | 202° |
| 2026-05-05 19:58 | 48.50856 | 2.44245 | 15203 ft | 352 kts | 184° |
| 2026-05-05 19:59 | 48.48400 | 2.44072 | 15897 ft | 355 kts | 184° |
| 2026-05-05 19:59 | 48.45918 | 2.43919 | 16579 ft | 358 kts | 183° |
| 2026-05-05 19:59 | 48.43416 | 2.43770 | 17257 ft | 361 kts | 183° |
| 2026-05-05 19:59 | 48.40878 | 2.43616 | 17927 ft | 365 kts | 183° |
| 2026-05-05 20:00 | 48.38335 | 2.43457 | 18527 ft | 368 kts | 183° |
| 2026-05-05 20:00 | 48.35769 | 2.43295 | 19102 ft | 371 kts | 183° |
| 2026-05-05 20:00 | 48.33173 | 2.43128 | 19692 ft | 374 kts | 183° |
| 2026-05-05 20:00 | 48.30556 | 2.42957 | 20277 ft | 377 kts | 183° |
| 2026-05-05 20:01 | 48.27925 | 2.42784 | 20863 ft | 380 kts | 182° |
| 2026-05-05 20:01 | 48.25269 | 2.42612 | 21426 ft | 384 kts | 182° |
| 2026-05-05 20:01 | 48.22586 | 2.42438 | 21985 ft | 388 kts | 182° |
| 2026-05-05 20:01 | 48.19877 | 2.42265 | 22552 ft | 391 kts | 181° |
| 2026-05-05 20:02 | 48.17143 | 2.42091 | 23109 ft | 395 kts | 181° |
| 2026-05-05 20:02 | 48.14387 | 2.41913 | 23517 ft | 397 kts | 181° |
| 2026-05-05 20:02 | 48.11626 | 2.41735 | 23873 ft | 398 kts | 181° |
| 2026-05-05 20:02 | 48.08879 | 2.41559 | 24289 ft | 402 kts | 181° |
| 2026-05-05 20:03 | 48.06078 | 2.41382 | 24728 ft | 404 kts | 181° |
| 2026-05-05 20:03 | 48.03223 | 2.41201 | 25176 ft | 407 kts | 181° |
| 2026-05-05 20:03 | 48.00424 | 2.41023 | 25600 ft | 409 kts | 181° |
| 2026-05-05 20:03 | 47.97533 | 2.40839 | 26021 ft | 411 kts | 181° |
| 2026-05-05 20:04 | 47.94711 | 2.40661 | 26424 ft | 413 kts | 181° |
| 2026-05-05 20:04 | 47.91828 | 2.40480 | 26831 ft | 416 kts | 181° |
| 2026-05-05 20:04 | 47.88928 | 2.40294 | 27221 ft | 418 kts | 181° |
| 2026-05-05 20:04 | 47.86010 | 2.40105 | 27621 ft | 420 kts | 181° |
| 2026-05-05 20:05 | 47.83077 | 2.39916 | 27996 ft | 423 kts | 181° |
| 2026-05-05 20:05 | 47.80125 | 2.39724 | 28368 ft | 425 kts | 181° |
| 2026-05-05 20:05 | 47.77165 | 2.39534 | 28726 ft | 428 kts | 181° |
| 2026-05-05 20:05 | 47.74182 | 2.39344 | 29073 ft | 430 kts | 181° |
| 2026-05-05 20:06 | 47.71182 | 2.39154 | 29414 ft | 433 kts | 181° |
| 2026-05-05 20:06 | 47.68165 | 2.38964 | 29752 ft | 435 kts | 181° |
| 2026-05-05 20:06 | 47.65135 | 2.38775 | 30046 ft | 437 kts | 181° |
| 2026-05-05 20:06 | 47.62095 | 2.38585 | 30343 ft | 438 kts | 181° |
| 2026-05-05 20:07 | 47.59043 | 2.38393 | 30628 ft | 440 kts | 181° |
| 2026-05-05 20:07 | 47.55979 | 2.38203 | 30905 ft | 441 kts | 181° |
| 2026-05-05 20:07 | 47.52910 | 2.38013 | 31176 ft | 442 kts | 181° |
| 2026-05-05 20:07 | 47.49825 | 2.37819 | 31436 ft | 443 kts | 182° |
| 2026-05-05 20:08 | 47.46779 | 2.37627 | 31788 ft | 442 kts | 182° |
| 2026-05-05 20:08 | 47.43672 | 2.37433 | 32163 ft | 441 kts | 182° |
| 2026-05-05 20:08 | 47.40651 | 2.37247 | 32523 ft | 439 kts | 182° |
| 2026-05-05 20:08 | 47.37595 | 2.37060 | 32889 ft | 438 kts | 182° |
| 2026-05-05 20:09 | 47.34552 | 2.36871 | 33256 ft | 437 kts | 182° |
| 2026-05-05 20:09 | 47.31516 | 2.36678 | 33625 ft | 436 kts | 182° |
| 2026-05-05 20:09 | 47.28487 | 2.36485 | 33970 ft | 435 kts | 182° |
| 2026-05-05 20:09 | 47.25466 | 2.36296 | 34261 ft | 434 kts | 182° |
| 2026-05-05 20:10 | 47.22447 | 2.36111 | 34526 ft | 434 kts | 182° |
| 2026-05-05 20:10 | 47.19424 | 2.35925 | 34793 ft | 434 kts | 182° |
| 2026-05-05 20:10 | 47.16407 | 2.35741 | 35043 ft | 434 kts | 182° |
| 2026-05-05 20:10 | 47.13389 | 2.35554 | 35283 ft | 434 kts | 183° |
| 2026-05-05 20:11 | 47.10367 | 2.35364 | 35514 ft | 434 kts | 183° |
| 2026-05-05 20:11 | 47.07346 | 2.35175 | 35741 ft | 435 kts | 183° |
| 2026-05-05 20:11 | 47.04325 | 2.34988 | 35962 ft | 435 kts | 183° |
| 2026-05-05 20:11 | 47.01302 | 2.34803 | 36180 ft | 435 kts | 183° |
| 2026-05-05 20:12 | 46.98280 | 2.34619 | 36391 ft | 435 kts | 183° |
| 2026-05-05 20:12 | 46.95255 | 2.34435 | 36599 ft | 435 kts | 183° |
| 2026-05-05 20:12 | 46.92229 | 2.34246 | 36801 ft | 435 kts | 183° |
| 2026-05-05 20:13 | 46.86177 | 2.33873 | 36886 ft | 433 kts | 184° |
| 2026-05-05 20:13 | 46.80275 | 2.32315 | 36882 ft | 431 kts | 195° |
| 2026-05-05 20:14 | 46.74485 | 2.30077 | 36887 ft | 431 kts | 195° |
| 2026-05-05 20:14 | 46.68682 | 2.27846 | 36896 ft | 431 kts | 195° |
| 2026-05-05 20:15 | 46.62874 | 2.25614 | 36889 ft | 431 kts | 195° |
| 2026-05-05 20:15 | 46.57076 | 2.23396 | 36896 ft | 431 kts | 195° |
| 2026-05-05 20:16 | 46.51276 | 2.21186 | 36906 ft | 431 kts | 195° |
| 2026-05-05 20:16 | 46.45476 | 2.18977 | 36906 ft | 431 kts | 195° |
| 2026-05-05 20:17 | 46.39685 | 2.16769 | 36913 ft | 430 kts | 195° |
| 2026-05-05 20:17 | 46.33898 | 2.14573 | 36911 ft | 430 kts | 195° |
| 2026-05-05 20:18 | 46.28103 | 2.12379 | 36918 ft | 430 kts | 195° |
| 2026-05-05 20:18 | 46.22313 | 2.10185 | 36915 ft | 430 kts | 195° |
| 2026-05-05 20:19 | 46.16860 | 2.06764 | 36911 ft | 429 kts | 214° |
| 2026-05-05 20:19 | 46.11971 | 2.01829 | 36916 ft | 429 kts | 215° |
| 2026-05-05 20:20 | 46.07077 | 1.96904 | 36918 ft | 429 kts | 214° |
| 2026-05-05 20:20 | 46.02177 | 1.91983 | 36918 ft | 430 kts | 215° |
| 2026-05-05 20:21 | 45.97277 | 1.87060 | 36922 ft | 430 kts | 215° |
| 2026-05-05 20:21 | 45.92367 | 1.82144 | 36929 ft | 430 kts | 215° |
| 2026-05-05 20:22 | 45.87449 | 1.77236 | 36937 ft | 430 kts | 215° |
| 2026-05-05 20:22 | 45.82534 | 1.72337 | 36939 ft | 431 kts | 215° |
| 2026-05-05 20:23 | 45.77607 | 1.67438 | 36946 ft | 431 kts | 215° |
| 2026-05-05 20:23 | 45.72686 | 1.62546 | 36949 ft | 431 kts | 215° |
| 2026-05-05 20:24 | 45.67762 | 1.57660 | 36951 ft | 430 kts | 215° |
| 2026-05-05 20:24 | 45.62838 | 1.52796 | 36946 ft | 430 kts | 215° |
| 2026-05-05 20:25 | 45.57878 | 1.47909 | 36949 ft | 430 kts | 215° |
| 2026-05-05 20:25 | 45.52958 | 1.43064 | 36946 ft | 429 kts | 215° |
| 2026-05-05 20:26 | 45.47935 | 1.38478 | 36951 ft | 429 kts | 206° |
| 2026-05-05 20:26 | 45.42285 | 1.35938 | 36948 ft | 430 kts | 194° |
| 2026-05-05 20:27 | 45.36444 | 1.34043 | 36940 ft | 430 kts | 194° |
| 2026-05-05 20:27 | 45.30607 | 1.32150 | 36939 ft | 431 kts | 194° |
| 2026-05-05 20:28 | 45.24759 | 1.30262 | 36943 ft | 431 kts | 194° |
| 2026-05-05 20:28 | 45.18914 | 1.28372 | 36946 ft | 431 kts | 194° |
| 2026-05-05 20:29 | 45.13068 | 1.26483 | 36952 ft | 431 kts | 194° |
| 2026-05-05 20:29 | 45.07226 | 1.24601 | 36951 ft | 431 kts | 194° |
| 2026-05-05 20:30 | 45.01379 | 1.22722 | 36952 ft | 431 kts | 194° |
| 2026-05-05 20:30 | 44.95524 | 1.20846 | 36956 ft | 431 kts | 194° |
| 2026-05-05 20:30 | 44.92597 | 1.19909 | 36851 ft | 431 kts | 194° |
| 2026-05-05 20:31 | 44.89654 | 1.18968 | 35995 ft | 436 kts | 194° |
| 2026-05-05 20:31 | 44.86707 | 1.18029 | 35485 ft | 431 kts | 194° |
| 2026-05-05 20:31 | 44.83801 | 1.17099 | 34984 ft | 426 kts | 194° |
| 2026-05-05 20:31 | 44.80921 | 1.16176 | 34499 ft | 422 kts | 194° |
| 2026-05-05 20:32 | 44.78074 | 1.15265 | 33999 ft | 418 kts | 194° |
| 2026-05-05 20:32 | 44.75247 | 1.14370 | 33473 ft | 413 kts | 193° |
| 2026-05-05 20:32 | 44.72466 | 1.13490 | 32982 ft | 407 kts | 193° |
| 2026-05-05 20:32 | 44.69716 | 1.12619 | 32512 ft | 402 kts | 193° |
| 2026-05-05 20:33 | 44.67010 | 1.11762 | 32058 ft | 396 kts | 193° |
| 2026-05-05 20:33 | 44.64333 | 1.10915 | 31609 ft | 392 kts | 193° |
| 2026-05-05 20:33 | 44.61696 | 1.10080 | 31182 ft | 387 kts | 193° |
| 2026-05-05 20:33 | 44.59084 | 1.09254 | 30751 ft | 382 kts | 193° |
| 2026-05-05 20:34 | 44.56508 | 1.08439 | 30335 ft | 377 kts | 193° |
| 2026-05-05 20:34 | 44.53960 | 1.07634 | 29902 ft | 373 kts | 193° |
| 2026-05-05 20:34 | 44.51445 | 1.06839 | 29468 ft | 368 kts | 193° |
| 2026-05-05 20:34 | 44.48969 | 1.06056 | 29065 ft | 362 kts | 193° |
| 2026-05-05 20:35 | 44.46530 | 1.05288 | 28670 ft | 357 kts | 193° |
| 2026-05-05 20:35 | 44.44122 | 1.04530 | 28268 ft | 352 kts | 193° |
| 2026-05-05 20:35 | 44.41745 | 1.03781 | 27870 ft | 348 kts | 193° |
| 2026-05-05 20:35 | 44.39399 | 1.03044 | 27482 ft | 343 kts | 193° |
| 2026-05-05 20:36 | 44.37861 | 1.02562 | 27203 ft | 341 kts | 193° |
| 2026-05-05 20:36 | 44.35557 | 1.01843 | 26803 ft | 337 kts | 193° |
| 2026-05-05 20:36 | 44.33282 | 1.01133 | 26403 ft | 334 kts | 193° |
| 2026-05-05 20:36 | 44.30297 | 1.00198 | 25853 ft | 329 kts | 194° |
| 2026-05-05 20:37 | 44.28795 | 0.99725 | 25573 ft | 327 kts | 194° |
| 2026-05-05 20:37 | 44.26579 | 0.99027 | 25163 ft | 325 kts | 194° |
| 2026-05-05 20:37 | 44.24382 | 0.98340 | 24758 ft | 323 kts | 194° |
| 2026-05-05 20:37 | 44.22200 | 0.97660 | 24344 ft | 320 kts | 194° |
| 2026-05-05 20:38 | 44.20031 | 0.96985 | 23934 ft | 319 kts | 194° |
| 2026-05-05 20:38 | 44.17871 | 0.96311 | 23519 ft | 317 kts | 194° |
| 2026-05-05 20:38 | 44.15721 | 0.95638 | 23068 ft | 315 kts | 194° |
| 2026-05-05 20:38 | 44.13595 | 0.94974 | 22666 ft | 312 kts | 194° |
| 2026-05-05 20:39 | 44.11490 | 0.94323 | 22277 ft | 309 kts | 194° |
| 2026-05-05 20:39 | 44.09401 | 0.93679 | 21897 ft | 306 kts | 194° |
| 2026-05-05 20:39 | 44.07327 | 0.93033 | 21519 ft | 304 kts | 194° |
| 2026-05-05 20:39 | 44.05274 | 0.92389 | 21146 ft | 301 kts | 194° |
| 2026-05-05 20:40 | 44.03234 | 0.91752 | 20772 ft | 300 kts | 194° |
| 2026-05-05 20:40 | 44.01205 | 0.91123 | 20404 ft | 298 kts | 194° |
| 2026-05-05 20:40 | 43.99187 | 0.90499 | 20039 ft | 297 kts | 194° |
| 2026-05-05 20:40 | 43.97200 | 0.89885 | 19682 ft | 296 kts | 194° |
| 2026-05-05 20:41 | 43.95195 | 0.89267 | 19322 ft | 295 kts | 194° |
| 2026-05-05 20:41 | 43.93196 | 0.88653 | 18966 ft | 294 kts | 194° |
| 2026-05-05 20:41 | 43.91197 | 0.88039 | 18610 ft | 294 kts | 195° |
| 2026-05-05 20:41 | 43.89280 | 0.87106 | 18246 ft | 292 kts | 208° |
| 2026-05-05 20:42 | 43.87581 | 0.85596 | 17849 ft | 289 kts | 221° |
| 2026-05-05 20:42 | 43.86118 | 0.83697 | 17481 ft | 288 kts | 225° |
| 2026-05-05 20:42 | 43.84681 | 0.81773 | 17126 ft | 287 kts | 225° |
| 2026-05-05 20:42 | 43.83248 | 0.79863 | 16777 ft | 286 kts | 225° |
| 2026-05-05 20:43 | 43.81816 | 0.77956 | 16427 ft | 285 kts | 225° |
| 2026-05-05 20:43 | 43.80388 | 0.76057 | 16087 ft | 284 kts | 225° |
| 2026-05-05 20:43 | 43.78960 | 0.74157 | 15745 ft | 284 kts | 225° |
| 2026-05-05 20:43 | 43.77538 | 0.72265 | 15402 ft | 284 kts | 225° |
| 2026-05-05 20:44 | 43.76110 | 0.70371 | 15065 ft | 284 kts | 225° |
| 2026-05-05 20:44 | 43.74686 | 0.68486 | 14727 ft | 284 kts | 225° |
| 2026-05-05 20:44 | 43.73261 | 0.66597 | 14389 ft | 284 kts | 225° |
| 2026-05-05 20:44 | 43.71834 | 0.64703 | 14042 ft | 284 kts | 225° |
| 2026-05-05 20:45 | 43.68978 | 0.60918 | 13320 ft | 284 kts | 225° |
| 2026-05-05 20:45 | 43.67554 | 0.59032 | 12979 ft | 283 kts | 225° |
| 2026-05-05 20:45 | 43.66136 | 0.57156 | 12630 ft | 282 kts | 225° |
| 2026-05-05 20:46 | 43.64587 | 0.55511 | 12274 ft | 282 kts | 211° |
| 2026-05-05 20:46 | 43.62828 | 0.54315 | 11917 ft | 281 kts | 207° |
| 2026-05-05 20:46 | 43.61061 | 0.53156 | 11558 ft | 281 kts | 207° |
| 2026-05-05 20:46 | 43.59302 | 0.51994 | 11191 ft | 280 kts | 207° |
| 2026-05-05 20:47 | 43.57546 | 0.50829 | 10828 ft | 280 kts | 207° |
| 2026-05-05 20:47 | 43.55793 | 0.49664 | 10453 ft | 280 kts | 207° |
| 2026-05-05 20:47 | 43.54040 | 0.48504 | 10069 ft | 280 kts | 207° |
| 2026-05-05 20:47 | 43.52281 | 0.47348 | 9670 ft | 280 kts | 207° |
| 2026-05-05 20:48 | 43.50534 | 0.46200 | 9279 ft | 278 kts | 207° |
| 2026-05-05 20:48 | 43.48792 | 0.45053 | 8884 ft | 277 kts | 207° |
| 2026-05-05 20:48 | 43.47058 | 0.43911 | 8492 ft | 275 kts | 207° |
| 2026-05-05 20:48 | 43.45339 | 0.42780 | 8082 ft | 274 kts | 207° |
| 2026-05-05 20:49 | 43.43627 | 0.41654 | 7709 ft | 272 kts | 207° |
| 2026-05-05 20:49 | 43.41994 | 0.40382 | 7310 ft | 268 kts | 219° |
| 2026-05-05 20:49 | 43.40695 | 0.38574 | 6925 ft | 264 kts | 233° |
| 2026-05-05 20:49 | 43.39549 | 0.36596 | 6533 ft | 262 kts | 235° |
| 2026-05-05 20:50 | 43.38628 | 0.34450 | 6094 ft | 260 kts | 246° |
| 2026-05-05 20:50 | 43.37945 | 0.32183 | 5732 ft | 253 kts | 251° |
| 2026-05-05 20:50 | 43.37353 | 0.29933 | 5156 ft | 248 kts | 252° |
| 2026-05-05 20:50 | 43.36793 | 0.27729 | 4722 ft | 238 kts | 252° |
| 2026-05-05 20:51 | 43.36253 | 0.25647 | 4354 ft | 225 kts | 251° |
| 2026-05-05 20:51 | 43.35724 | 0.23670 | 4000 ft | 215 kts | 251° |
| 2026-05-05 20:51 | 43.35213 | 0.21787 | 3660 ft | 207 kts | 251° |
| 2026-05-05 20:51 | 43.34714 | 0.19972 | 3566 ft | 201 kts | 251° |
| 2026-05-05 20:52 | 43.34214 | 0.18168 | 3498 ft | 202 kts | 251° |
| 2026-05-05 20:52 | 43.33709 | 0.16361 | 3416 ft | 203 kts | 250° |
| 2026-05-05 20:52 | 43.33219 | 0.14550 | 3333 ft | 201 kts | 256° |
| 2026-05-05 20:52 | 43.32940 | 0.12673 | 3244 ft | 201 kts | 260° |
| 2026-05-05 20:53 | 43.32671 | 0.10786 | 3152 ft | 201 kts | 259° |
| 2026-05-05 20:53 | 43.32401 | 0.08996 | 3054 ft | 196 kts | 255° |
| 2026-05-05 20:53 | 43.31871 | 0.07419 | 3032 ft | 191 kts | 241° |
| 2026-05-05 20:53 | 43.31207 | 0.05775 | 3037 ft | 200 kts | 244° |
| 2026-05-05 20:54 | 43.30319 | 0.04361 | 3022 ft | 195 kts | 209° |
| 2026-05-05 20:54 | 43.29009 | 0.04207 | 3068 ft | 189 kts | 172° |
| 2026-05-05 20:54 | 43.27779 | 0.04464 | 2970 ft | 170 kts | 196° |
| 2026-05-05 20:54 | 43.26774 | 0.03834 | 2846 ft | 155 kts | 211° |
| 2026-05-05 20:55 | 43.25769 | 0.03334 | 2651 ft | 150 kts | 204° |
| 2026-05-05 20:55 | 43.24806 | 0.02870 | 2458 ft | 145 kts | 205° |
| 2026-05-05 20:55 | 43.23861 | 0.02400 | 2265 ft | 144 kts | 205° |
| 2026-05-05 20:55 | 43.22926 | 0.01930 | 2046 ft | 143 kts | 202° |
| 2026-05-05 20:56 | 43.21992 | 0.01462 | 1846 ft | 143 kts | 202° |
| 2026-05-05 20:56 | 43.21065 | 0.00987 | 1631 ft | 142 kts | 201° |
| 2026-05-05 20:56 | 43.20142 | 0.00520 | 1424 ft | 141 kts | 201° |
| 2026-05-05 20:56 | 43.19228 | 0.00059 | 1258 ft | 140 kts | 201° |
| 2026-05-05 20:57 | 43.18366 | -0.00385 | 1207 ft | 116 kts | 199° |
| 2026-05-05 20:57 | 43.17765 | -0.00685 | 1225 ft | 66 kts | 200° |
| 2026-05-05 20:57 | 43.17470 | -0.00835 | 1237 ft | 35 kts | 201° |
| 2026-05-05 20:57 | 43.17255 | -0.00945 | 1253 ft | 31 kts | 200° |
| 2026-05-05 20:58 | 43.17066 | -0.01040 | 1254 ft | 28 kts | 200° |
| 2026-05-05 20:58 | 43.16891 | -0.01127 | 1258 ft | 26 kts | 200° |
| 2026-05-05 20:58 | 43.16728 | -0.01209 | 1259 ft | 24 kts | 200° |
| 2026-05-05 20:58 | 43.16626 | -0.01247 | 1264 ft | 11 kts | 171° |
| 2026-05-05 20:59 | 43.16586 | -0.01180 | 1265 ft | 9 kts | 109° |
| 2026-05-05 20:59 | 43.16592 | -0.01099 | 1271 ft | 9 kts | 57° |
| 2026-05-05 20:59 | 43.16638 | -0.01032 | 1262 ft | 10 kts | 47° |
| 2026-05-05 20:59 | 43.16696 | -0.00968 | 1259 ft | 11 kts | 33° |
| 2026-05-05 21:00 | 43.16770 | -0.00926 | 1265 ft | 12 kts | 20° |
| 2026-05-05 21:00 | 43.16853 | -0.00884 | 1257 ft | 13 kts | 20° |
| 2026-05-05 21:00 | 43.16943 | -0.00841 | 1253 ft | 14 kts | 20° |
| 2026-05-05 21:00 | 43.17038 | -0.00792 | 1253 ft | 15 kts | 20° |
| 2026-05-05 21:01 | 43.17138 | -0.00741 | 1245 ft | 16 kts | 20° |
| 2026-05-05 21:01 | 43.17247 | -0.00686 | 1243 ft | 18 kts | 20° |
| 2026-05-05 21:01 | 43.17374 | -0.00622 | 1237 ft | 21 kts | 20° |
| 2026-05-05 21:01 | 43.17524 | -0.00545 | 1232 ft | 25 kts | 21° |
| 2026-05-05 21:02 | 43.17692 | -0.00440 | 1226 ft | 28 kts | 27° |
| 2026-05-05 21:02 | 43.17839 | -0.00329 | 1221 ft | 17 kts | 30° |
| 2026-05-05 21:02 | 43.17953 | -0.00242 | 1217 ft | 21 kts | 30° |
| 2026-05-05 21:02 | 43.18091 | -0.00137 | 1212 ft | 25 kts | 30° |
| 2026-05-05 21:03 | 43.18252 | -0.00014 | 1206 ft | 28 kts | 29° |
| 2026-05-05 21:03 | 43.18377 | 0.00081 | 1202 ft | 15 kts | 29° |
| 2026-05-05 21:03 | 43.18449 | 0.00126 | 1199 ft | 10 kts | 26° |
| 2026-05-05 21:03 | 43.18492 | 0.00184 | 1198 ft | 3 kts | 44° |